AAL3299 KBOS-KEWR
Flight info
| Callsign | AAL3299 |
|---|---|
| Flight time | N/A |
| Altitude | 16000 |
| Route | PATSS7 PATSS NELIE FLOSI4 |
| Aircraft | A320/M-SDE3FGHIRWY/LB1 |
Departure
| Time | 2026-05-07 19:28 |
|---|---|
| Airport | Boston Logan International Airport (KBOS) |
Arrival
| Time | N/A |
|---|---|
| Airport | Newark Liberty International Airport (KEWR) |
| Time | Latitude | Longitude | Altitude | Speed | Heading |
|---|---|---|---|---|---|
| 2026-05-07 18:29 | 42.36355 | -71.02164 | 27 ft | 0 kts | 39° |
| 2026-05-07 19:09 | 42.36347 | -71.02172 | 31 ft | 4 kts | 40° |
| 2026-05-07 19:10 | 42.36328 | -71.02197 | 29 ft | 4 kts | 51° |
| 2026-05-07 19:10 | 42.36314 | -71.02227 | 25 ft | 4 kts | 82° |
| 2026-05-07 19:10 | 42.36316 | -71.02250 | 25 ft | 0 kts | 121° |
| 2026-05-07 19:14 | 42.36312 | -71.02242 | 25 ft | 2 kts | 121° |
| 2026-05-07 19:14 | 42.36308 | -71.02235 | 25 ft | 1 kts | 133° |
| 2026-05-07 19:15 | 42.36274 | -71.02235 | 27 ft | 6 kts | 187° |
| 2026-05-07 19:15 | 42.36241 | -71.02249 | 25 ft | 4 kts | 198° |
| 2026-05-07 19:15 | 42.36202 | -71.02267 | 28 ft | 7 kts | 200° |
| 2026-05-07 19:15 | 42.36165 | -71.02288 | 29 ft | 5 kts | 204° |
| 2026-05-07 19:16 | 42.36130 | -71.02309 | 27 ft | 9 kts | 204° |
| 2026-05-07 19:16 | 42.36047 | -71.02285 | 25 ft | 13 kts | 133° |
| 2026-05-07 19:16 | 42.35999 | -71.02184 | 27 ft | 12 kts | 121° |
| 2026-05-07 19:16 | 42.35959 | -71.02094 | 25 ft | 11 kts | 120° |
| 2026-05-07 19:17 | 42.35907 | -71.01976 | 25 ft | 21 kts | 121° |
| 2026-05-07 19:17 | 42.35843 | -71.01806 | 26 ft | 19 kts | 106° |
| 2026-05-07 19:17 | 42.35823 | -71.01642 | 25 ft | 16 kts | 91° |
| 2026-05-07 19:17 | 42.35876 | -71.01584 | 28 ft | 11 kts | 324° |
| 2026-05-07 19:18 | 42.35949 | -71.01612 | 25 ft | 11 kts | 9° |
| 2026-05-07 19:18 | 42.36043 | -71.01574 | 27 ft | 21 kts | 19° |
| 2026-05-07 19:18 | 42.36190 | -71.01503 | 28 ft | 23 kts | 20° |
| 2026-05-07 19:18 | 42.36312 | -71.01444 | 27 ft | 10 kts | 19° |
| 2026-05-07 19:19 | 42.36358 | -71.01402 | 28 ft | 6 kts | 78° |
| 2026-05-07 19:19 | 42.36349 | -71.01350 | 30 ft | 7 kts | 113° |
| 2026-05-07 19:19 | 42.36340 | -71.01325 | 28 ft | 0 kts | 118° |
| 2026-05-07 19:19 | 42.36339 | -71.01321 | 28 ft | 1 kts | 118° |
| 2026-05-07 19:20 | 42.36334 | -71.01309 | 29 ft | 0 kts | 118° |
| 2026-05-07 19:20 | 42.36321 | -71.01277 | 28 ft | 15 kts | 118° |
| 2026-05-07 19:21 | 42.36264 | -71.01147 | 25 ft | 15 kts | 122° |
| 2026-05-07 19:21 | 42.36219 | -71.01024 | 28 ft | 14 kts | 114° |
| 2026-05-07 19:21 | 42.36182 | -71.00912 | 27 ft | 12 kts | 114° |
| 2026-05-07 19:21 | 42.36152 | -71.00820 | 28 ft | 0 kts | 114° |
| 2026-05-07 19:22 | 42.36151 | -71.00817 | 28 ft | 1 kts | 114° |
| 2026-05-07 19:22 | 42.36150 | -71.00816 | 28 ft | 0 kts | 114° |
| 2026-05-07 19:22 | 42.36150 | -71.00814 | 25 ft | 0 kts | 114° |
| 2026-05-07 19:23 | 42.36146 | -71.00802 | 29 ft | 2 kts | 114° |
| 2026-05-07 19:23 | 42.36124 | -71.00733 | 26 ft | 19 kts | 111° |
| 2026-05-07 19:23 | 42.36080 | -71.00561 | 28 ft | 19 kts | 109° |
| 2026-05-07 19:23 | 42.36040 | -71.00401 | 28 ft | 17 kts | 109° |
| 2026-05-07 19:24 | 42.36002 | -71.00254 | 28 ft | 16 kts | 109° |
| 2026-05-07 19:24 | 42.35967 | -71.00122 | 28 ft | 14 kts | 116° |
| 2026-05-07 19:24 | 42.35911 | -71.00023 | 27 ft | 13 kts | 136° |
| 2026-05-07 19:24 | 42.35904 | -71.00012 | 25 ft | 0 kts | 136° |
| 2026-05-07 19:25 | 42.35883 | -70.99986 | 25 ft | 18 kts | 135° |
| 2026-05-07 19:25 | 42.35774 | -70.99838 | 29 ft | 23 kts | 135° |
| 2026-05-07 19:25 | 42.35667 | -70.99697 | 27 ft | 20 kts | 135° |
| 2026-05-07 19:25 | 42.35570 | -70.99568 | 29 ft | 19 kts | 136° |
| 2026-05-07 19:26 | 42.35491 | -70.99442 | 26 ft | 16 kts | 104° |
| 2026-05-07 19:26 | 42.35500 | -70.99298 | 25 ft | 15 kts | 82° |
| 2026-05-07 19:26 | 42.35559 | -70.99290 | 25 ft | 11 kts | 314° |
| 2026-05-07 19:26 | 42.35581 | -70.99321 | 25 ft | 0 kts | 315° |
| 2026-05-07 19:27 | 42.35604 | -70.99352 | 25 ft | 29 kts | 315° |
| 2026-05-07 19:27 | 42.35962 | -70.99840 | 28 ft | 114 kts | 316° |
| 2026-05-07 19:28 | 42.36677 | -71.00804 | 190 ft | 162 kts | 311° |
| 2026-05-07 19:28 | 42.37414 | -71.01969 | 799 ft | 168 kts | 310° |
| 2026-05-07 19:28 | 42.38244 | -71.03149 | 1359 ft | 177 kts | 304° |
| 2026-05-07 19:28 | 42.38921 | -71.04542 | 2008 ft | 181 kts | 301° |
| 2026-05-07 19:29 | 42.39579 | -71.06009 | 2609 ft | 183 kts | 300° |
| 2026-05-07 19:29 | 42.40228 | -71.07492 | 3173 ft | 184 kts | 300° |
| 2026-05-07 19:29 | 42.40832 | -71.09045 | 3644 ft | 188 kts | 285° |
| 2026-05-07 19:29 | 42.40757 | -71.10806 | 4125 ft | 195 kts | 248° |
| 2026-05-07 19:30 | 42.39969 | -71.12321 | 4628 ft | 197 kts | 236° |
| 2026-05-07 19:30 | 42.39153 | -71.13821 | 5096 ft | 198 kts | 239° |
| 2026-05-07 19:30 | 42.38357 | -71.15344 | 5584 ft | 198 kts | 238° |
| 2026-05-07 19:30 | 42.37561 | -71.16882 | 6033 ft | 201 kts | 239° |
| 2026-05-07 19:31 | 42.36755 | -71.18436 | 6455 ft | 202 kts | 238° |
| 2026-05-07 19:31 | 42.35945 | -71.19996 | 6905 ft | 202 kts | 239° |
| 2026-05-07 19:31 | 42.35146 | -71.21532 | 7356 ft | 209 kts | 239° |
| 2026-05-07 19:31 | 42.34275 | -71.23207 | 7826 ft | 221 kts | 239° |
| 2026-05-07 19:32 | 42.33387 | -71.24904 | 8692 ft | 220 kts | 240° |
| 2026-05-07 19:32 | 42.32507 | -71.26573 | 9649 ft | 216 kts | 240° |
| 2026-05-07 19:32 | 42.31633 | -71.28223 | 10499 ft | 213 kts | 240° |
| 2026-05-07 19:32 | 42.30772 | -71.29850 | 11320 ft | 211 kts | 239° |
| 2026-05-07 19:33 | 42.29922 | -71.31462 | 12151 ft | 210 kts | 239° |
| 2026-05-07 19:33 | 42.29363 | -71.32523 | 12685 ft | 209 kts | 239° |
| 2026-05-07 19:33 | 42.28524 | -71.34116 | 13499 ft | 207 kts | 238° |
| 2026-05-07 19:33 | 42.27693 | -71.35688 | 14249 ft | 205 kts | 238° |
| 2026-05-07 19:34 | 42.26864 | -71.37259 | 14899 ft | 206 kts | 238° |
| 2026-05-07 19:34 | 42.26029 | -71.38843 | 15535 ft | 208 kts | 238° |
| 2026-05-07 19:34 | 42.24875 | -71.41035 | 15966 ft | 229 kts | 237° |
| 2026-05-07 19:34 | 42.24229 | -71.42268 | 16006 ft | 246 kts | 237° |
| 2026-05-07 19:35 | 42.23201 | -71.44228 | 16014 ft | 271 kts | 237° |
| 2026-05-07 19:35 | 42.22061 | -71.46392 | 16015 ft | 292 kts | 237° |
| 2026-05-07 19:35 | 42.20862 | -71.48655 | 16019 ft | 299 kts | 237° |
| 2026-05-07 19:35 | 42.19647 | -71.50938 | 16018 ft | 300 kts | 237° |
| 2026-05-07 19:36 | 42.18429 | -71.53224 | 16023 ft | 300 kts | 237° |
| 2026-05-07 19:36 | 42.17226 | -71.55479 | 16026 ft | 300 kts | 237° |
| 2026-05-07 19:36 | 42.16007 | -71.57770 | 16026 ft | 300 kts | 237° |
| 2026-05-07 19:36 | 42.14789 | -71.60062 | 16019 ft | 300 kts | 237° |
| 2026-05-07 19:37 | 42.13567 | -71.62350 | 16000 ft | 300 kts | 237° |
| 2026-05-07 19:37 | 42.12345 | -71.64634 | 16014 ft | 300 kts | 237° |
| 2026-05-07 19:37 | 42.11123 | -71.66921 | 16018 ft | 301 kts | 237° |
| 2026-05-07 19:37 | 42.09901 | -71.69216 | 16019 ft | 300 kts | 238° |
| 2026-05-07 19:38 | 42.08936 | -71.71692 | 16023 ft | 299 kts | 249° |
| 2026-05-07 19:38 | 42.08411 | -71.74405 | 16028 ft | 300 kts | 257° |
| 2026-05-07 19:38 | 42.08013 | -71.77160 | 16030 ft | 300 kts | 257° |
| 2026-05-07 19:38 | 42.07614 | -71.79887 | 16031 ft | 300 kts | 257° |
| 2026-05-07 19:39 | 42.07208 | -71.82645 | 16029 ft | 300 kts | 257° |
| 2026-05-07 19:39 | 42.06801 | -71.85406 | 16036 ft | 301 kts | 257° |
| 2026-05-07 19:39 | 42.06390 | -71.88164 | 16037 ft | 300 kts | 256° |
| 2026-05-07 19:39 | 42.05980 | -71.90928 | 16045 ft | 300 kts | 256° |
| 2026-05-07 19:40 | 42.05569 | -71.93681 | 16058 ft | 300 kts | 256° |
| 2026-05-07 19:40 | 42.05155 | -71.96439 | 16056 ft | 301 kts | 256° |
| 2026-05-07 19:40 | 42.04742 | -71.99197 | 16059 ft | 301 kts | 256° |
| 2026-05-07 19:40 | 42.04333 | -72.01927 | 16057 ft | 301 kts | 256° |
| 2026-05-07 19:41 | 42.03921 | -72.04684 | 16054 ft | 300 kts | 256° |
| 2026-05-07 19:41 | 42.03504 | -72.07471 | 16050 ft | 300 kts | 256° |
| 2026-05-07 19:41 | 42.03097 | -72.10190 | 16048 ft | 300 kts | 256° |
| 2026-05-07 19:41 | 42.02683 | -72.12940 | 16046 ft | 300 kts | 256° |
| 2026-05-07 19:42 | 42.02268 | -72.15694 | 16018 ft | 300 kts | 256° |
| 2026-05-07 19:42 | 42.01851 | -72.18449 | 16028 ft | 299 kts | 256° |
| 2026-05-07 19:42 | 42.01434 | -72.21194 | 16027 ft | 299 kts | 256° |
| 2026-05-07 19:42 | 42.01022 | -72.23903 | 16034 ft | 299 kts | 256° |
| 2026-05-07 19:43 | 42.00604 | -72.26641 | 16060 ft | 299 kts | 256° |
| 2026-05-07 19:43 | 42.00186 | -72.29387 | 16054 ft | 299 kts | 256° |
| 2026-05-07 19:43 | 41.99768 | -72.32129 | 16058 ft | 300 kts | 256° |
| 2026-05-07 19:43 | 41.99348 | -72.34881 | 16057 ft | 300 kts | 256° |
| 2026-05-07 19:44 | 41.98927 | -72.37630 | 16056 ft | 300 kts | 256° |
| 2026-05-07 19:44 | 41.98510 | -72.40340 | 16058 ft | 300 kts | 256° |
| 2026-05-07 19:44 | 41.98089 | -72.43083 | 16063 ft | 300 kts | 256° |
| 2026-05-07 19:44 | 41.97668 | -72.45829 | 16064 ft | 300 kts | 256° |
| 2026-05-07 19:45 | 41.97248 | -72.48572 | 16068 ft | 300 kts | 256° |
| 2026-05-07 19:45 | 41.96827 | -72.51315 | 16068 ft | 300 kts | 256° |
| 2026-05-07 19:45 | 41.96401 | -72.54056 | 16071 ft | 300 kts | 256° |
| 2026-05-07 19:45 | 41.95974 | -72.56802 | 16071 ft | 299 kts | 256° |
| 2026-05-07 19:46 | 41.95550 | -72.59537 | 16073 ft | 300 kts | 256° |
| 2026-05-07 19:46 | 41.95120 | -72.62287 | 16082 ft | 300 kts | 256° |
| 2026-05-07 19:46 | 41.94699 | -72.64994 | 16073 ft | 300 kts | 256° |
| 2026-05-07 19:46 | 41.94273 | -72.67740 | 16067 ft | 300 kts | 256° |
| 2026-05-07 19:47 | 41.93730 | -72.70447 | 16063 ft | 300 kts | 251° |
| 2026-05-07 19:47 | 41.93096 | -72.73120 | 16061 ft | 300 kts | 251° |
| 2026-05-07 19:47 | 41.92458 | -72.75794 | 16058 ft | 300 kts | 251° |
| 2026-05-07 19:47 | 41.91818 | -72.78474 | 16024 ft | 300 kts | 251° |
| 2026-05-07 19:48 | 41.91183 | -72.81136 | 16037 ft | 299 kts | 251° |
| 2026-05-07 19:48 | 41.90558 | -72.83766 | 16042 ft | 299 kts | 251° |
| 2026-05-07 19:48 | 41.89924 | -72.86424 | 16043 ft | 298 kts | 251° |
| 2026-05-07 19:48 | 41.89289 | -72.89074 | 16049 ft | 299 kts | 251° |
| 2026-05-07 19:49 | 41.88649 | -72.91734 | 16056 ft | 298 kts | 251° |
| 2026-05-07 19:49 | 41.88012 | -72.94386 | 16058 ft | 299 kts | 251° |
| 2026-05-07 19:49 | 41.87375 | -72.97035 | 16077 ft | 298 kts | 251° |
| 2026-05-07 19:49 | 41.86737 | -72.99691 | 16070 ft | 298 kts | 251° |
| 2026-05-07 19:50 | 41.86106 | -73.02319 | 16066 ft | 299 kts | 251° |
| 2026-05-07 19:50 | 41.85463 | -73.04980 | 16060 ft | 300 kts | 251° |
| 2026-05-07 19:50 | 41.84821 | -73.07640 | 16059 ft | 300 kts | 251° |
| 2026-05-07 19:50 | 41.84178 | -73.10315 | 16064 ft | 300 kts | 251° |
| 2026-05-07 19:51 | 41.83534 | -73.12983 | 16067 ft | 301 kts | 251° |
| 2026-05-07 19:51 | 41.82888 | -73.15654 | 16078 ft | 302 kts | 251° |
| 2026-05-07 19:51 | 41.82237 | -73.18334 | 16081 ft | 302 kts | 251° |
| 2026-05-07 19:51 | 41.81588 | -73.21015 | 16077 ft | 301 kts | 251° |
| 2026-05-07 19:52 | 41.80941 | -73.23679 | 16072 ft | 300 kts | 251° |
| 2026-05-07 19:52 | 41.80296 | -73.26333 | 16070 ft | 300 kts | 251° |
| 2026-05-07 19:52 | 41.79657 | -73.28954 | 16069 ft | 300 kts | 251° |
| 2026-05-07 19:52 | 41.79011 | -73.31612 | 16064 ft | 300 kts | 251° |
| 2026-05-07 19:53 | 41.78361 | -73.34278 | 16066 ft | 300 kts | 251° |
| 2026-05-07 19:53 | 41.77712 | -73.36937 | 16070 ft | 300 kts | 251° |
| 2026-05-07 19:53 | 41.77064 | -73.39598 | 16062 ft | 300 kts | 251° |
| 2026-05-07 19:53 | 41.76414 | -73.42254 | 16064 ft | 300 kts | 251° |
| 2026-05-07 19:54 | 41.75759 | -73.44926 | 16064 ft | 300 kts | 251° |
| 2026-05-07 19:54 | 41.75108 | -73.47583 | 16068 ft | 300 kts | 251° |
| 2026-05-07 19:54 | 41.74470 | -73.50181 | 16063 ft | 297 kts | 251° |
| 2026-05-07 19:54 | 41.73820 | -73.52824 | 16063 ft | 299 kts | 251° |
| 2026-05-07 19:55 | 41.73167 | -73.55476 | 16060 ft | 300 kts | 251° |
| 2026-05-07 19:55 | 41.72514 | -73.58125 | 16061 ft | 300 kts | 251° |
| 2026-05-07 19:55 | 41.71857 | -73.60785 | 16062 ft | 299 kts | 251° |
| 2026-05-07 19:55 | 41.71206 | -73.63431 | 16061 ft | 299 kts | 251° |
| 2026-05-07 19:56 | 41.70562 | -73.66044 | 16076 ft | 301 kts | 251° |
| 2026-05-07 19:56 | 41.69901 | -73.68717 | 16066 ft | 303 kts | 251° |
| 2026-05-07 19:56 | 41.69233 | -73.71405 | 16065 ft | 305 kts | 251° |
| 2026-05-07 19:56 | 41.68562 | -73.74109 | 16074 ft | 306 kts | 251° |
| 2026-05-07 19:57 | 41.67890 | -73.76817 | 16080 ft | 305 kts | 251° |
| 2026-05-07 19:57 | 41.67226 | -73.79481 | 16083 ft | 305 kts | 251° |
| 2026-05-07 19:57 | 41.66553 | -73.82174 | 16080 ft | 304 kts | 251° |
| 2026-05-07 19:57 | 41.65895 | -73.84862 | 16081 ft | 304 kts | 252° |
| 2026-05-07 19:58 | 41.65255 | -73.87568 | 16080 ft | 304 kts | 252° |
| 2026-05-07 19:58 | 41.64629 | -73.90252 | 16076 ft | 304 kts | 252° |
| 2026-05-07 19:58 | 41.63999 | -73.92961 | 16075 ft | 303 kts | 252° |
| 2026-05-07 19:58 | 41.63373 | -73.95636 | 16074 ft | 303 kts | 251° |
| 2026-05-07 19:59 | 41.62738 | -73.98323 | 16072 ft | 303 kts | 252° |
| 2026-05-07 19:59 | 41.62107 | -74.00981 | 16078 ft | 303 kts | 252° |
| 2026-05-07 19:59 | 41.61467 | -74.03674 | 16064 ft | 305 kts | 252° |
| 2026-05-07 19:59 | 41.60823 | -74.06376 | 16049 ft | 306 kts | 252° |
| 2026-05-07 20:00 | 41.60176 | -74.09090 | 16044 ft | 307 kts | 252° |
| 2026-05-07 20:00 | 41.59529 | -74.11811 | 16046 ft | 308 kts | 252° |
| 2026-05-07 20:00 | 41.58877 | -74.14548 | 16053 ft | 309 kts | 252° |
| 2026-05-07 20:00 | 41.58224 | -74.17281 | 16054 ft | 308 kts | 252° |
| 2026-05-07 20:01 | 41.57572 | -74.20001 | 16064 ft | 308 kts | 252° |
| 2026-05-07 20:01 | 41.56916 | -74.22728 | 16068 ft | 308 kts | 252° |
| 2026-05-07 20:01 | 41.56261 | -74.25456 | 16069 ft | 308 kts | 252° |
| 2026-05-07 20:01 | 41.55613 | -74.28156 | 16070 ft | 309 kts | 251° |
| 2026-05-07 20:02 | 41.54718 | -74.30755 | 16070 ft | 309 kts | 239° |
| 2026-05-07 20:02 | 41.53315 | -74.32948 | 16053 ft | 314 kts | 225° |
| 2026-05-07 20:02 | 41.51481 | -74.34564 | 16058 ft | 321 kts | 211° |
| 2026-05-07 20:02 | 41.49351 | -74.35584 | 16059 ft | 325 kts | 205° |
| 2026-05-07 20:03 | 41.47223 | -74.36499 | 16077 ft | 326 kts | 205° |
| 2026-05-07 20:03 | 41.45061 | -74.37426 | 16074 ft | 326 kts | 205° |
| 2026-05-07 20:03 | 41.42894 | -74.38358 | 16068 ft | 327 kts | 205° |
| 2026-05-07 20:03 | 41.40728 | -74.39290 | 16067 ft | 327 kts | 205° |
| 2026-05-07 20:04 | 41.38554 | -74.40225 | 16070 ft | 327 kts | 205° |
| 2026-05-07 20:04 | 41.36414 | -74.41144 | 16067 ft | 327 kts | 205° |
| 2026-05-07 20:04 | 41.34245 | -74.42075 | 16064 ft | 327 kts | 205° |
| 2026-05-07 20:04 | 41.32075 | -74.43006 | 16047 ft | 327 kts | 205° |
| 2026-05-07 20:05 | 41.29909 | -74.43935 | 16060 ft | 327 kts | 205° |
| 2026-05-07 20:05 | 41.27740 | -74.44866 | 16073 ft | 328 kts | 205° |
| 2026-05-07 20:05 | 41.25563 | -74.45799 | 16076 ft | 328 kts | 205° |
| 2026-05-07 20:05 | 41.23386 | -74.46731 | 16082 ft | 328 kts | 205° |
| 2026-05-07 20:06 | 41.21245 | -74.47643 | 16080 ft | 327 kts | 205° |
| 2026-05-07 20:06 | 41.19078 | -74.48567 | 16082 ft | 326 kts | 205° |
| 2026-05-07 20:06 | 41.16911 | -74.49491 | 16080 ft | 326 kts | 205° |
| 2026-05-07 20:06 | 41.14750 | -74.50413 | 16082 ft | 326 kts | 205° |
| 2026-05-07 20:07 | 41.12594 | -74.51333 | 16064 ft | 325 kts | 206° |
| 2026-05-07 20:07 | 41.10441 | -74.52249 | 16073 ft | 324 kts | 206° |
| 2026-05-07 20:07 | 41.10023 | -74.52426 | 16075 ft | 324 kts | 206° |